This is the latest recevied weather packets stored in our database for station/object KM4CBK. If no packets are shown the sender has not sent any weather packets the latest 10 day(s).
| Time | Temp. | Humidity | Pressure | Rain* | Wind** | Luminosity | Snow |
|---|---|---|---|---|---|---|---|
| 1777918521 | 26.11° C | 36% | 1015 hPa | 0 mm | - | 302 W/m² | - |
| 1777918220 | 27.22° C | 36% | 1015 hPa | 0 mm | - | 365 W/m² | - |
| 1777917918 | 27.22° C | 39% | 1015.1 hPa | 0 mm | - | 735 W/m² | - |
| 1777917617 | 26.67° C | 42% | 1015.3 hPa | 0 mm | - | 749 W/m² | - |
| 1777917314 | 26.67° C | 42% | 1015.3 hPa | 0 mm | - | 729 W/m² | - |
| 1777917011 | 26.11° C | 39% | 1015.3 hPa | 0 mm | - | 728 W/m² | - |
| 1777916709 | 25.56° C | 39% | 1015.3 hPa | 0 mm | - | 563 W/m² | - |
| 1777916405 | 26.67° C | 41% | 1015.2 hPa | 0 mm | - | 654 W/m² | - |
| 1777916102 | 25.56° C | 43% | 1015.3 hPa | 0 mm | - | 538 W/m² | - |
| 1777915799 | 27.22° C | 43% | 1015.5 hPa | 0 mm | - | 730 W/m² | - |
| 1777915495 | 26.11° C | 43% | 1015.5 hPa | 0 mm | - | 713 W/m² | - |
| 1777915192 | 24.44° C | 41% | 1015.8 hPa | 0 mm | - | 575 W/m² | - |
| 1777914889 | 24.44° C | 44% | 1015.6 hPa | 0 mm | - | 538 W/m² | - |
| 1777914586 | 25° C | 42% | 1015.8 hPa | 0 mm | - | 696 W/m² | - |
| 1777914282 | 25.56° C | 42% | 1015.9 hPa | 0 mm | - | 689 W/m² | - |
| 1777913979 | 25.56° C | 47% | 1016.1 hPa | 0 mm | - | 691 W/m² | - |
| 1777913675 | 25° C | 41% | 1016.1 hPa | 0 mm | - | 575 W/m² | - |
| 1777913372 | 25.56° C | 42% | 1016.4 hPa | 0 mm | - | 663 W/m² | - |
| 1777913069 | 26.11° C | 43% | 1016.2 hPa | 0 mm | - | 690 W/m² | - |
| 1777912765 | 26.11° C | 44% | 1016.4 hPa | 0 mm | - | 635 W/m² | - |
| 1777912461 | 25° C | 43% | 1016.6 hPa | 0 mm | - | 612 W/m² | - |
| 1777912158 | 25° C | 46% | 1016.6 hPa | 0 mm | - | 484 W/m² | - |
| 1777911853 | 26.11° C | 46% | 1016.5 hPa | 0 mm | - | 629 W/m² | - |
| 1777911550 | 25.56° C | 46% | 1016.6 hPa | 0 mm | - | 705 W/m² | - |
| 1777911247 | 25° C | 49% | 1016.8 hPa | 0 mm | - | 689 W/m² | - |
* Rain latest hour (hover to see other rain measurements)
** Current wind speed in m/s (hover to see current wind gust speed)